sensor_id;sensor_type;location;lat;lon;timestamp;temperature;humidity
47162;DHT22;32921;53.256;8.198;2023-07-22T00:02:11;12.10;99.90
47162;DHT22;32921;53.256;8.198;2023-07-22T00:04:36;12.20;99.90
47162;DHT22;32921;53.256;8.198;2023-07-22T00:07:03;12.20;99.90
47162;DHT22;32921;53.256;8.198;2023-07-22T00:09:29;12.20;99.90
47162;DHT22;32921;53.256;8.198;2023-07-22T00:11:54;12.10;99.90
47162;DHT22;32921;53.256;8.198;2023-07-22T00:14:20;12.10;99.90
47162;DHT22;32921;53.256;8.198;2023-07-22T00:16:45;12.10;99.90
47162;DHT22;32921;53.256;8.198;2023-07-22T00:19:11;12.00;99.90
47162;DHT22;32921;53.256;8.198;2023-07-22T00:21:36;12.00;99.90
47162;DHT22;32921;53.256;8.198;2023-07-22T00:24:02;11.90;99.90
47162;DHT22;32921;53.256;8.198;2023-07-22T00:26:27;12.00;99.90
47162;DHT22;32921;53.256;8.198;2023-07-22T00:28:53;12.10;99.90
47162;DHT22;32921;53.256;8.198;2023-07-22T00:31:19;12.10;99.90
47162;DHT22;32921;53.256;8.198;2023-07-22T00:33:44;12.20;99.90
47162;DHT22;32921;53.256;8.198;2023-07-22T00:36:10;12.10;99.90
47162;DHT22;32921;53.256;8.198;2023-07-22T00:38:35;12.10;99.90
47162;DHT22;32921;53.256;8.198;2023-07-22T00:41:01;12.10;99.90
47162;DHT22;32921;53.256;8.198;2023-07-22T00:43:30;12.00;99.90
47162;DHT22;32921;53.256;8.198;2023-07-22T00:45:55;12.00;99.90
47162;DHT22;32921;53.256;8.198;2023-07-22T00:48:21;11.90;99.90
47162;DHT22;32921;53.256;8.198;2023-07-22T00:50:47;11.90;99.90
47162;DHT22;32921;53.256;8.198;2023-07-22T00:53:13;11.90;99.90
47162;DHT22;32921;53.256;8.198;2023-07-22T00:55:39;11.80;99.90
47162;DHT22;32921;53.256;8.198;2023-07-22T00:58:08;11.80;99.90
47162;DHT22;32921;53.256;8.198;2023-07-22T01:00:34;11.80;99.90
47162;DHT22;32921;53.256;8.198;2023-07-22T01:03:00;11.70;99.90
47162;DHT22;32921;53.256;8.198;2023-07-22T01:05:26;11.70;99.90
47162;DHT22;32921;53.256;8.198;2023-07-22T01:07:53;11.80;99.90
47162;DHT22;32921;53.256;8.198;2023-07-22T01:10:19;11.70;99.90
47162;DHT22;32921;53.256;8.198;2023-07-22T01:12:45;11.80;99.90
47162;DHT22;32921;53.256;8.198;2023-07-22T01:15:11;11.70;99.90
47162;DHT22;32921;53.256;8.198;2023-07-22T01:17:37;11.70;99.90
47162;DHT22;32921;53.256;8.198;2023-07-22T01:20:04;11.70;99.90
47162;DHT22;32921;53.256;8.198;2023-07-22T01:22:31;11.70;99.90
47162;DHT22;32921;53.256;8.198;2023-07-22T01:24:57;11.60;99.90
47162;DHT22;32921;53.256;8.198;2023-07-22T01:27:23;11.60;99.90
47162;DHT22;32921;53.256;8.198;2023-07-22T01:29:52;11.70;99.90
47162;DHT22;32921;53.256;8.198;2023-07-22T01:32:18;11.70;99.90
47162;DHT22;32921;53.256;8.198;2023-07-22T01:34:45;11.80;99.90
47162;DHT22;32921;53.256;8.198;2023-07-22T01:37:11;11.70;99.90
47162;DHT22;32921;53.256;8.198;2023-07-22T01:39:36;11.70;99.90
47162;DHT22;32921;53.256;8.198;2023-07-22T01:42:03;11.70;99.90
47162;DHT22;32921;53.256;8.198;2023-07-22T01:44:29;11.50;99.90
47162;DHT22;32921;53.256;8.198;2023-07-22T01:46:55;11.40;99.90
47162;DHT22;32921;53.256;8.198;2023-07-22T01:49:20;11.50;99.90
47162;DHT22;32921;53.256;8.198;2023-07-22T01:51:46;11.40;99.90
47162;DHT22;32921;53.256;8.198;2023-07-22T01:54:12;11.50;99.90
47162;DHT22;32921;53.256;8.198;2023-07-22T01:56:38;11.40;99.90
47162;DHT22;32921;53.256;8.198;2023-07-22T01:59:05;11.50;99.90
47162;DHT22;32921;53.256;8.198;2023-07-22T02:01:31;11.40;99.90
47162;DHT22;32921;53.256;8.198;2023-07-22T02:03:56;11.20;99.90
47162;DHT22;32921;53.256;8.198;2023-07-22T02:06:22;11.10;99.90
47162;DHT22;32921;53.256;8.198;2023-07-22T02:08:48;11.20;99.90
47162;DHT22;32921;53.256;8.198;2023-07-22T02:11:13;11.30;99.90
47162;DHT22;32921;53.256;8.198;2023-07-22T02:13:39;11.20;99.90
47162;DHT22;32921;53.256;8.198;2023-07-22T02:16:05;11.20;99.90
47162;DHT22;32921;53.256;8.198;2023-07-22T02:18:30;11.10;99.90
47162;DHT22;32921;53.256;8.198;2023-07-22T02:20:56;11.10;99.90
47162;DHT22;32921;53.256;8.198;2023-07-22T02:23:23;11.10;99.90
47162;DHT22;32921;53.256;8.198;2023-07-22T02:25:52;11.10;99.90
47162;DHT22;32921;53.256;8.198;2023-07-22T02:28:19;11.10;99.90
47162;DHT22;32921;53.256;8.198;2023-07-22T02:30:49;11.10;99.90
47162;DHT22;32921;53.256;8.198;2023-07-22T02:33:15;11.10;99.90
47162;DHT22;32921;53.256;8.198;2023-07-22T02:35:41;11.10;99.90
47162;DHT22;32921;53.256;8.198;2023-07-22T02:38:07;11.10;99.90
47162;DHT22;32921;53.256;8.198;2023-07-22T02:40:37;11.10;99.90
47162;DHT22;32921;53.256;8.198;2023-07-22T02:43:02;11.10;99.90
47162;DHT22;32921;53.256;8.198;2023-07-22T02:45:28;11.10;99.90
47162;DHT22;32921;53.256;8.198;2023-07-22T02:47:54;11.10;99.90
47162;DHT22;32921;53.256;8.198;2023-07-22T02:50:19;11.10;99.90
47162;DHT22;32921;53.256;8.198;2023-07-22T02:52:45;11.10;99.90
47162;DHT22;32921;53.256;8.198;2023-07-22T02:55:16;11.00;99.90
47162;DHT22;32921;53.256;8.198;2023-07-22T02:57:45;11.00;99.90
47162;DHT22;32921;53.256;8.198;2023-07-22T03:00:16;10.90;99.90
47162;DHT22;32921;53.256;8.198;2023-07-22T03:02:49;11.00;99.90
47162;DHT22;32921;53.256;8.198;2023-07-22T03:05:16;11.00;99.90
47162;DHT22;32921;53.256;8.198;2023-07-22T03:07:42;11.00;99.90
47162;DHT22;32921;53.256;8.198;2023-07-22T03:10:08;11.00;99.90
47162;DHT22;32921;53.256;8.198;2023-07-22T03:12:35;11.00;99.90
47162;DHT22;32921;53.256;8.198;2023-07-22T03:15:01;11.00;99.90
47162;DHT22;32921;53.256;8.198;2023-07-22T03:17:27;11.10;99.90
47162;DHT22;32921;53.256;8.198;2023-07-22T03:19:53;11.10;99.90
47162;DHT22;32921;53.256;8.198;2023-07-22T03:22:18;11.00;99.90
47162;DHT22;32921;53.256;8.198;2023-07-22T03:24:44;11.00;99.90
47162;DHT22;32921;53.256;8.198;2023-07-22T03:27:11;11.10;99.90
47162;DHT22;32921;53.256;8.198;2023-07-22T03:29:37;11.10;99.90
47162;DHT22;32921;53.256;8.198;2023-07-22T03:32:04;11.10;99.90
47162;DHT22;32921;53.256;8.198;2023-07-22T03:34:30;11.00;99.90
47162;DHT22;32921;53.256;8.198;2023-07-22T03:36:57;10.90;99.90
47162;DHT22;32921;53.256;8.198;2023-07-22T03:39:22;10.90;99.90
47162;DHT22;32921;53.256;8.198;2023-07-22T03:41:48;10.80;99.90
47162;DHT22;32921;53.256;8.198;2023-07-22T03:44:14;10.70;99.90
47162;DHT22;32921;53.256;8.198;2023-07-22T03:46:39;10.80;99.90
47162;DHT22;32921;53.256;8.198;2023-07-22T03:49:05;10.80;99.90
47162;DHT22;32921;53.256;8.198;2023-07-22T03:51:31;10.70;99.90
47162;DHT22;32921;53.256;8.198;2023-07-22T03:53:57;10.70;99.90
47162;DHT22;32921;53.256;8.198;2023-07-22T03:56:23;10.70;99.90
47162;DHT22;32921;53.256;8.198;2023-07-22T03:58:52;10.80;99.90
47162;DHT22;32921;53.256;8.198;2023-07-22T04:01:18;10.80;99.90
47162;DHT22;32921;53.256;8.198;2023-07-22T04:03:44;10.90;99.90
47162;DHT22;32921;53.256;8.198;2023-07-22T04:06:10;10.80;99.90
47162;DHT22;32921;53.256;8.198;2023-07-22T04:08:36;10.90;99.90
47162;DHT22;32921;53.256;8.198;2023-07-22T04:11:02;10.90;99.90
47162;DHT22;32921;53.256;8.198;2023-07-22T04:13:28;10.90;99.90
47162;DHT22;32921;53.256;8.198;2023-07-22T04:15:54;11.00;99.90
47162;DHT22;32921;53.256;8.198;2023-07-22T04:18:20;11.10;99.90
47162;DHT22;32921;53.256;8.198;2023-07-22T04:20:46;11.20;99.90
47162;DHT22;32921;53.256;8.198;2023-07-22T04:23:14;11.30;99.90
47162;DHT22;32921;53.256;8.198;2023-07-22T04:25:43;11.30;99.90
47162;DHT22;32921;53.256;8.198;2023-07-22T04:28:09;11.40;99.90
47162;DHT22;32921;53.256;8.198;2023-07-22T04:30:35;11.50;99.90
47162;DHT22;32921;53.256;8.198;2023-07-22T04:33:02;11.50;99.90
47162;DHT22;32921;53.256;8.198;2023-07-22T04:35:38;11.50;99.90
47162;DHT22;32921;53.256;8.198;2023-07-22T04:38:04;11.50;99.90
47162;DHT22;32921;53.256;8.198;2023-07-22T04:40:30;11.70;99.90
47162;DHT22;32921;53.256;8.198;2023-07-22T04:42:56;11.80;99.90
47162;DHT22;32921;53.256;8.198;2023-07-22T04:45:22;11.90;99.90
47162;DHT22;32921;53.256;8.198;2023-07-22T04:47:52;12.00;99.90
47162;DHT22;32921;53.256;8.198;2023-07-22T04:50:18;12.00;99.90
47162;DHT22;32921;53.256;8.198;2023-07-22T04:52:47;12.10;99.90
47162;DHT22;32921;53.256;8.198;2023-07-22T04:55:14;12.10;99.90
47162;DHT22;32921;53.256;8.198;2023-07-22T04:57:41;12.10;99.90
47162;DHT22;32921;53.256;8.198;2023-07-22T05:00:08;12.20;99.90
47162;DHT22;32921;53.256;8.198;2023-07-22T05:02:35;12.20;99.90
47162;DHT22;32921;53.256;8.198;2023-07-22T05:05:00;12.20;99.90
47162;DHT22;32921;53.256;8.198;2023-07-22T05:07:26;12.20;99.90
47162;DHT22;32921;53.256;8.198;2023-07-22T05:09:52;12.40;99.90
47162;DHT22;32921;53.256;8.198;2023-07-22T05:12:18;12.40;99.90
47162;DHT22;32921;53.256;8.198;2023-07-22T05:14:45;12.60;99.90
47162;DHT22;32921;53.256;8.198;2023-07-22T05:17:11;12.60;99.90
47162;DHT22;32921;53.256;8.198;2023-07-22T05:19:36;12.80;99.90
47162;DHT22;32921;53.256;8.198;2023-07-22T05:22:02;12.90;99.90
47162;DHT22;32921;53.256;8.198;2023-07-22T05:24:27;13.00;99.90
47162;DHT22;32921;53.256;8.198;2023-07-22T05:26:53;13.40;99.90
47162;DHT22;32921;53.256;8.198;2023-07-22T05:29:19;13.80;99.90
47162;DHT22;32921;53.256;8.198;2023-07-22T05:31:45;14.10;99.90
47162;DHT22;32921;53.256;8.198;2023-07-22T05:34:11;14.10;99.90
47162;DHT22;32921;53.256;8.198;2023-07-22T05:36:37;14.10;99.90
47162;DHT22;32921;53.256;8.198;2023-07-22T05:39:03;14.10;99.90
47162;DHT22;32921;53.256;8.198;2023-07-22T05:41:29;14.00;99.90
47162;DHT22;32921;53.256;8.198;2023-07-22T05:43:54;14.10;99.90
47162;DHT22;32921;53.256;8.198;2023-07-22T05:46:20;14.20;99.90
47162;DHT22;32921;53.256;8.198;2023-07-22T05:48:45;14.30;99.90
47162;DHT22;32921;53.256;8.198;2023-07-22T05:51:11;14.40;99.90
47162;DHT22;32921;53.256;8.198;2023-07-22T05:53:36;14.50;99.90
47162;DHT22;32921;53.256;8.198;2023-07-22T05:56:02;14.50;99.90
47162;DHT22;32921;53.256;8.198;2023-07-22T05:58:27;14.60;99.90
47162;DHT22;32921;53.256;8.198;2023-07-22T06:00:54;14.70;99.90
47162;DHT22;32921;53.256;8.198;2023-07-22T06:03:19;15.00;99.90
47162;DHT22;32921;53.256;8.198;2023-07-22T06:05:46;15.30;99.90
47162;DHT22;32921;53.256;8.198;2023-07-22T06:08:12;15.40;99.90
47162;DHT22;32921;53.256;8.198;2023-07-22T06:10:37;15.50;99.90
47162;DHT22;32921;53.256;8.198;2023-07-22T06:13:04;15.60;99.90
47162;DHT22;32921;53.256;8.198;2023-07-22T06:15:30;15.90;99.90
47162;DHT22;32921;53.256;8.198;2023-07-22T06:17:55;16.30;99.90
47162;DHT22;32921;53.256;8.198;2023-07-22T06:20:21;16.60;99.90
47162;DHT22;32921;53.256;8.198;2023-07-22T06:22:46;16.60;99.90
47162;DHT22;32921;53.256;8.198;2023-07-22T06:25:12;16.60;99.90
47162;DHT22;32921;53.256;8.198;2023-07-22T06:27:38;16.50;99.90
47162;DHT22;32921;53.256;8.198;2023-07-22T06:30:04;16.70;99.90
47162;DHT22;32921;53.256;8.198;2023-07-22T06:32:30;17.00;99.90
47162;DHT22;32921;53.256;8.198;2023-07-22T06:34:58;17.30;99.90
47162;DHT22;32921;53.256;8.198;2023-07-22T06:37:24;17.40;99.90
47162;DHT22;32921;53.256;8.198;2023-07-22T06:39:50;17.50;99.90
47162;DHT22;32921;53.256;8.198;2023-07-22T06:42:15;17.40;99.90
47162;DHT22;32921;53.256;8.198;2023-07-22T06:44:42;17.50;99.90
47162;DHT22;32921;53.256;8.198;2023-07-22T06:47:07;17.50;99.90
47162;DHT22;32921;53.256;8.198;2023-07-22T06:49:33;17.50;99.90
47162;DHT22;32921;53.256;8.198;2023-07-22T06:51:58;17.10;99.90
47162;DHT22;32921;53.256;8.198;2023-07-22T06:54:24;17.30;99.90
47162;DHT22;32921;53.256;8.198;2023-07-22T06:56:49;17.30;99.90
47162;DHT22;32921;53.256;8.198;2023-07-22T06:59:15;17.30;99.90
47162;DHT22;32921;53.256;8.198;2023-07-22T07:01:40;17.30;99.90
47162;DHT22;32921;53.256;8.198;2023-07-22T07:04:06;17.40;99.90
47162;DHT22;32921;53.256;8.198;2023-07-22T07:06:32;17.30;99.90
47162;DHT22;32921;53.256;8.198;2023-07-22T07:09:00;17.50;99.90
47162;DHT22;32921;53.256;8.198;2023-07-22T07:11:26;17.60;99.90
47162;DHT22;32921;53.256;8.198;2023-07-22T07:13:52;17.70;99.90
47162;DHT22;32921;53.256;8.198;2023-07-22T07:16:26;17.90;99.90
47162;DHT22;32921;53.256;8.198;2023-07-22T07:18:52;18.40;99.90
47162;DHT22;32921;53.256;8.198;2023-07-22T07:21:18;18.60;99.90
47162;DHT22;32921;53.256;8.198;2023-07-22T07:23:45;19.40;99.90
47162;DHT22;32921;53.256;8.198;2023-07-22T07:26:10;20.10;99.90
47162;DHT22;32921;53.256;8.198;2023-07-22T07:28:36;20.20;99.90
47162;DHT22;32921;53.256;8.198;2023-07-22T07:31:02;19.90;99.90
47162;DHT22;32921;53.256;8.198;2023-07-22T07:33:28;19.70;99.90
47162;DHT22;32921;53.256;8.198;2023-07-22T07:35:53;19.50;99.90
47162;DHT22;32921;53.256;8.198;2023-07-22T07:38:19;19.60;99.90
47162;DHT22;32921;53.256;8.198;2023-07-22T07:40:44;19.50;99.90
47162;DHT22;32921;53.256;8.198;2023-07-22T07:43:10;19.90;99.90
47162;DHT22;32921;53.256;8.198;2023-07-22T07:45:39;20.30;99.90
47162;DHT22;32921;53.256;8.198;2023-07-22T07:48:05;20.70;99.90
47162;DHT22;32921;53.256;8.198;2023-07-22T07:50:32;20.80;99.90
47162;DHT22;32921;53.256;8.198;2023-07-22T07:52:57;21.10;99.90
47162;DHT22;32921;53.256;8.198;2023-07-22T07:55:24;21.50;99.90
47162;DHT22;32921;53.256;8.198;2023-07-22T07:57:50;21.70;99.50
47162;DHT22;32921;53.256;8.198;2023-07-22T08:00:16;21.60;96.10
47162;DHT22;32921;53.256;8.198;2023-07-22T08:02:42;21.30;98.20
47162;DHT22;32921;53.256;8.198;2023-07-22T08:05:07;21.20;99.50
47162;DHT22;32921;53.256;8.198;2023-07-22T08:07:33;21.20;97.90
47162;DHT22;32921;53.256;8.198;2023-07-22T08:09:59;21.40;98.00
47162;DHT22;32921;53.256;8.198;2023-07-22T08:12:24;21.60;96.10
47162;DHT22;32921;53.256;8.198;2023-07-22T08:14:53;21.30;97.30
47162;DHT22;32921;53.256;8.198;2023-07-22T08:17:18;21.40;96.90
47162;DHT22;32921;53.256;8.198;2023-07-22T08:19:44;21.40;97.00
47162;DHT22;32921;53.256;8.198;2023-07-22T08:22:09;21.60;96.20
47162;DHT22;32921;53.256;8.198;2023-07-22T08:24:35;21.70;95.90
47162;DHT22;32921;53.256;8.198;2023-07-22T08:27:00;22.10;95.10
47162;DHT22;32921;53.256;8.198;2023-07-22T08:29:26;22.40;94.60
47162;DHT22;32921;53.256;8.198;2023-07-22T08:31:52;22.90;94.80
47162;DHT22;32921;53.256;8.198;2023-07-22T08:34:17;24.00;93.10
47162;DHT22;32921;53.256;8.198;2023-07-22T08:36:43;24.60;88.40
47162;DHT22;32921;53.256;8.198;2023-07-22T08:39:09;23.90;89.40
47162;DHT22;32921;53.256;8.198;2023-07-22T08:41:35;23.80;88.00
47162;DHT22;32921;53.256;8.198;2023-07-22T08:44:02;23.30;83.60
47162;DHT22;32921;53.256;8.198;2023-07-22T08:46:29;22.70;85.60
47162;DHT22;32921;53.256;8.198;2023-07-22T08:49:00;22.10;90.70
47162;DHT22;32921;53.256;8.198;2023-07-22T08:51:26;21.90;91.90
47162;DHT22;32921;53.256;8.198;2023-07-22T08:53:58;21.50;91.30
47162;DHT22;32921;53.256;8.198;2023-07-22T08:56:25;21.20;91.60
47162;DHT22;32921;53.256;8.198;2023-07-22T08:58:54;21.40;92.30
47162;DHT22;32921;53.256;8.198;2023-07-22T09:01:20;21.30;93.70
47162;DHT22;32921;53.256;8.198;2023-07-22T09:03:48;21.40;92.10
47162;DHT22;32921;53.256;8.198;2023-07-22T09:06:16;22.10;92.70
47162;DHT22;32921;53.256;8.198;2023-07-22T09:08:42;22.20;90.60
47162;DHT22;32921;53.256;8.198;2023-07-22T09:11:08;22.30;91.10
47162;DHT22;32921;53.256;8.198;2023-07-22T09:13:34;22.40;91.20
47162;DHT22;32921;53.256;8.198;2023-07-22T09:16:01;22.30;92.40
47162;DHT22;32921;53.256;8.198;2023-07-22T09:18:28;22.60;92.80
47162;DHT22;32921;53.256;8.198;2023-07-22T09:20:53;23.20;90.30
47162;DHT22;32921;53.256;8.198;2023-07-22T09:23:32;24.50;89.90
47162;DHT22;32921;53.256;8.198;2023-07-22T09:26:09;24.80;80.20
47162;DHT22;32921;53.256;8.198;2023-07-22T09:28:48;24.50;83.70
47162;DHT22;32921;53.256;8.198;2023-07-22T09:31:14;23.90;82.30
47162;DHT22;32921;53.256;8.198;2023-07-22T09:33:40;24.10;82.70
47162;DHT22;32921;53.256;8.198;2023-07-22T09:36:05;24.60;83.60
47162;DHT22;32921;53.256;8.198;2023-07-22T09:38:31;24.70;78.70
47162;DHT22;32921;53.256;8.198;2023-07-22T09:40:57;24.20;79.90
47162;DHT22;32921;53.256;8.198;2023-07-22T09:43:23;23.60;85.40
47162;DHT22;32921;53.256;8.198;2023-07-22T09:45:49;23.50;85.30
47162;DHT22;32921;53.256;8.198;2023-07-22T09:48:15;23.20;83.70
47162;DHT22;32921;53.256;8.198;2023-07-22T09:50:41;22.90;86.70
47162;DHT22;32921;53.256;8.198;2023-07-22T09:53:06;22.80;86.10
47162;DHT22;32921;53.256;8.198;2023-07-22T09:55:33;23.30;86.80
47162;DHT22;32921;53.256;8.198;2023-07-22T09:58:03;23.00;89.90
47162;DHT22;32921;53.256;8.198;2023-07-22T10:00:34;22.80;82.80
47162;DHT22;32921;53.256;8.198;2023-07-22T10:03:03;22.60;87.40
47162;DHT22;32921;53.256;8.198;2023-07-22T10:05:34;22.40;91.10
47162;DHT22;32921;53.256;8.198;2023-07-22T10:08:01;22.20;90.50
47162;DHT22;32921;53.256;8.198;2023-07-22T10:10:32;22.20;87.80
47162;DHT22;32921;53.256;8.198;2023-07-22T10:12:58;22.00;88.10
47162;DHT22;32921;53.256;8.198;2023-07-22T10:15:29;22.40;89.10
47162;DHT22;32921;53.256;8.198;2023-07-22T10:17:56;22.60;83.90
47162;DHT22;32921;53.256;8.198;2023-07-22T10:20:23;22.50;87.10
47162;DHT22;32921;53.256;8.198;2023-07-22T10:22:49;22.50;84.90
47162;DHT22;32921;53.256;8.198;2023-07-22T10:25:18;22.80;87.50
47162;DHT22;32921;53.256;8.198;2023-07-22T10:27:44;23.30;84.40
47162;DHT22;32921;53.256;8.198;2023-07-22T10:30:12;23.50;85.60
47162;DHT22;32921;53.256;8.198;2023-07-22T10:32:42;23.90;77.70
47162;DHT22;32921;53.256;8.198;2023-07-22T10:35:09;23.90;79.40
47162;DHT22;32921;53.256;8.198;2023-07-22T10:37:38;23.50;80.10
47162;DHT22;32921;53.256;8.198;2023-07-22T10:40:46;22.80;85.00
47162;DHT22;32921;53.256;8.198;2023-07-22T10:43:12;22.80;83.60
47162;DHT22;32921;53.256;8.198;2023-07-22T10:45:42;22.40;84.00
47162;DHT22;32921;53.256;8.198;2023-07-22T10:48:10;22.00;87.00
47162;DHT22;32921;53.256;8.198;2023-07-22T10:50:51;22.00;84.40
47162;DHT22;32921;53.256;8.198;2023-07-22T10:56:19;21.70;88.40
47162;DHT22;32921;53.256;8.198;2023-07-22T11:06:33;20.80;91.00
47162;DHT22;32921;53.256;8.198;2023-07-22T11:08:59;20.70;90.80
47162;DHT22;32921;53.256;8.198;2023-07-22T11:11:44;20.90;89.00
47162;DHT22;32921;53.256;8.198;2023-07-22T11:14:17;20.90;91.10
47162;DHT22;32921;53.256;8.198;2023-07-22T11:16:45;20.90;91.20
47162;DHT22;32921;53.256;8.198;2023-07-22T11:19:16;20.90;93.10
47162;DHT22;32921;53.256;8.198;2023-07-22T11:21:43;21.10;90.80
47162;DHT22;32921;53.256;8.198;2023-07-22T11:24:09;21.40;91.00
47162;DHT22;32921;53.256;8.198;2023-07-22T11:26:35;21.50;91.40
47162;DHT22;32921;53.256;8.198;2023-07-22T11:29:03;21.50;90.50
47162;DHT22;32921;53.256;8.198;2023-07-22T11:31:33;21.40;91.40
47162;DHT22;32921;53.256;8.198;2023-07-22T11:34:00;21.10;91.60
47162;DHT22;32921;53.256;8.198;2023-07-22T11:36:28;21.10;90.60
47162;DHT22;32921;53.256;8.198;2023-07-22T11:39:05;21.20;91.10
47162;DHT22;32921;53.256;8.198;2023-07-22T11:41:31;21.10;89.60
47162;DHT22;32921;53.256;8.198;2023-07-22T11:43:58;21.10;92.80
47162;DHT22;32921;53.256;8.198;2023-07-22T11:46:24;20.80;93.80
47162;DHT22;32921;53.256;8.198;2023-07-22T11:48:51;20.60;95.80
47162;DHT22;32921;53.256;8.198;2023-07-22T11:51:22;20.20;97.90
47162;DHT22;32921;53.256;8.198;2023-07-22T11:53:52;19.90;99.90
47162;DHT22;32921;53.256;8.198;2023-07-22T11:56:28;19.40;99.90
47162;DHT22;32921;53.256;8.198;2023-07-22T11:58:57;19.00;99.90
47162;DHT22;32921;53.256;8.198;2023-07-22T12:01:23;18.80;99.90
47162;DHT22;32921;53.256;8.198;2023-07-22T12:03:50;18.40;99.90
47162;DHT22;32921;53.256;8.198;2023-07-22T12:06:20;18.00;99.90
47162;DHT22;32921;53.256;8.198;2023-07-22T12:08:48;17.50;99.90
47162;DHT22;32921;53.256;8.198;2023-07-22T12:11:17;17.40;99.90
47162;DHT22;32921;53.256;8.198;2023-07-22T12:13:43;17.30;99.90
47162;DHT22;32921;53.256;8.198;2023-07-22T12:16:11;17.10;99.90
47162;DHT22;32921;53.256;8.198;2023-07-22T12:18:42;17.10;99.90
47162;DHT22;32921;53.256;8.198;2023-07-22T12:21:08;17.00;99.90
47162;DHT22;32921;53.256;8.198;2023-07-22T12:23:35;17.00;99.90
47162;DHT22;32921;53.256;8.198;2023-07-22T12:26:01;17.10;99.90
47162;DHT22;32921;53.256;8.198;2023-07-22T12:28:26;16.90;99.90
47162;DHT22;32921;53.256;8.198;2023-07-22T12:30:52;16.90;99.90
47162;DHT22;32921;53.256;8.198;2023-07-22T12:33:17;16.90;99.90
47162;DHT22;32921;53.256;8.198;2023-07-22T12:35:43;17.00;99.90
47162;DHT22;32921;53.256;8.198;2023-07-22T12:38:08;16.90;99.90
47162;DHT22;32921;53.256;8.198;2023-07-22T12:40:34;16.90;99.90
47162;DHT22;32921;53.256;8.198;2023-07-22T12:42:59;17.00;99.90
47162;DHT22;32921;53.256;8.198;2023-07-22T12:45:25;16.90;99.90
47162;DHT22;32921;53.256;8.198;2023-07-22T12:47:50;17.00;99.90
47162;DHT22;32921;53.256;8.198;2023-07-22T12:50:16;17.10;99.90
47162;DHT22;32921;53.256;8.198;2023-07-22T12:52:42;17.10;99.90
47162;DHT22;32921;53.256;8.198;2023-07-22T12:55:07;17.00;99.90
47162;DHT22;32921;53.256;8.198;2023-07-22T12:57:33;17.00;99.90
47162;DHT22;32921;53.256;8.198;2023-07-22T12:59:59;16.90;99.90
47162;DHT22;32921;53.256;8.198;2023-07-22T13:02:24;16.80;99.90
47162;DHT22;32921;53.256;8.198;2023-07-22T13:04:51;16.90;99.90
47162;DHT22;32921;53.256;8.198;2023-07-22T13:07:16;16.90;99.90
47162;DHT22;32921;53.256;8.198;2023-07-22T13:12:21;17.10;99.90
47162;DHT22;32921;53.256;8.198;2023-07-22T13:14:47;17.30;99.90
47162;DHT22;32921;53.256;8.198;2023-07-22T13:17:13;17.60;99.90
47162;DHT22;32921;53.256;8.198;2023-07-22T13:19:38;17.80;99.90
47162;DHT22;32921;53.256;8.198;2023-07-22T13:22:04;17.70;99.90
47162;DHT22;32921;53.256;8.198;2023-07-22T13:24:29;17.70;99.90
47162;DHT22;32921;53.256;8.198;2023-07-22T13:26:55;17.80;99.90
47162;DHT22;32921;53.256;8.198;2023-07-22T13:29:21;17.70;99.90
47162;DHT22;32921;53.256;8.198;2023-07-22T13:31:46;17.50;99.90
47162;DHT22;32921;53.256;8.198;2023-07-22T13:34:12;17.20;99.90
47162;DHT22;32921;53.256;8.198;2023-07-22T13:36:37;16.90;99.90
47162;DHT22;32921;53.256;8.198;2023-07-22T13:39:03;16.60;99.90
47162;DHT22;32921;53.256;8.198;2023-07-22T13:41:28;16.60;99.90
47162;DHT22;32921;53.256;8.198;2023-07-22T13:43:54;16.70;99.90
47162;DHT22;32921;53.256;8.198;2023-07-22T13:46:20;16.80;99.90
47162;DHT22;32921;53.256;8.198;2023-07-22T13:48:45;16.70;99.90
47162;DHT22;32921;53.256;8.198;2023-07-22T13:51:11;16.70;99.90
47162;DHT22;32921;53.256;8.198;2023-07-22T13:53:36;16.80;99.90
47162;DHT22;32921;53.256;8.198;2023-07-22T13:56:02;16.50;99.90
47162;DHT22;32921;53.256;8.198;2023-07-22T13:58:28;16.50;99.90
47162;DHT22;32921;53.256;8.198;2023-07-22T14:00:54;16.40;99.90
47162;DHT22;32921;53.256;8.198;2023-07-22T14:03:19;16.20;99.90
47162;DHT22;32921;53.256;8.198;2023-07-22T14:05:45;16.30;99.90
47162;DHT22;32921;53.256;8.198;2023-07-22T14:08:11;16.30;99.90
47162;DHT22;32921;53.256;8.198;2023-07-22T14:10:37;16.40;99.90
47162;DHT22;32921;53.256;8.198;2023-07-22T14:13:02;16.50;99.90
47162;DHT22;32921;53.256;8.198;2023-07-22T14:15:28;16.80;99.90
47162;DHT22;32921;53.256;8.198;2023-07-22T14:17:53;16.70;99.90
47162;DHT22;32921;53.256;8.198;2023-07-22T14:20:19;16.80;99.90
47162;DHT22;32921;53.256;8.198;2023-07-22T14:22:45;16.60;99.90
47162;DHT22;32921;53.256;8.198;2023-07-22T14:25:10;16.80;99.90
47162;DHT22;32921;53.256;8.198;2023-07-22T14:27:38;16.70;99.90
47162;DHT22;32921;53.256;8.198;2023-07-22T14:30:06;16.90;99.90
47162;DHT22;32921;53.256;8.198;2023-07-22T14:32:31;16.90;99.90
47162;DHT22;32921;53.256;8.198;2023-07-22T14:34:57;16.90;99.90
47162;DHT22;32921;53.256;8.198;2023-07-22T14:37:23;17.00;99.90
47162;DHT22;32921;53.256;8.198;2023-07-22T14:39:49;16.80;99.90
47162;DHT22;32921;53.256;8.198;2023-07-22T14:42:14;16.70;99.90
47162;DHT22;32921;53.256;8.198;2023-07-22T14:44:40;16.80;99.90
47162;DHT22;32921;53.256;8.198;2023-07-22T14:47:06;16.90;99.90
47162;DHT22;32921;53.256;8.198;2023-07-22T14:49:31;16.80;99.90
47162;DHT22;32921;53.256;8.198;2023-07-22T14:51:57;16.90;99.90
47162;DHT22;32921;53.256;8.198;2023-07-22T14:54:22;16.80;99.90
47162;DHT22;32921;53.256;8.198;2023-07-22T14:56:48;16.80;99.90
47162;DHT22;32921;53.256;8.198;2023-07-22T14:59:15;16.90;99.90
47162;DHT22;32921;53.256;8.198;2023-07-22T15:01:41;17.00;99.90
47162;DHT22;32921;53.256;8.198;2023-07-22T15:04:08;16.90;99.90
47162;DHT22;32921;53.256;8.198;2023-07-22T15:06:35;16.90;99.90
47162;DHT22;32921;53.256;8.198;2023-07-22T15:09:01;16.90;99.90
47162;DHT22;32921;53.256;8.198;2023-07-22T15:11:27;16.90;99.90
47162;DHT22;32921;53.256;8.198;2023-07-22T15:13:52;17.00;99.90
47162;DHT22;32921;53.256;8.198;2023-07-22T15:16:18;17.00;99.90
47162;DHT22;32921;53.256;8.198;2023-07-22T15:18:43;16.80;99.90
47162;DHT22;32921;53.256;8.198;2023-07-22T15:21:09;16.60;99.90
47162;DHT22;32921;53.256;8.198;2023-07-22T15:23:35;16.60;99.90
47162;DHT22;32921;53.256;8.198;2023-07-22T15:26:00;16.60;99.90
47162;DHT22;32921;53.256;8.198;2023-07-22T15:28:26;16.60;99.90
47162;DHT22;32921;53.256;8.198;2023-07-22T15:30:53;16.50;99.90
47162;DHT22;32921;53.256;8.198;2023-07-22T15:33:19;16.60;99.90
47162;DHT22;32921;53.256;8.198;2023-07-22T15:35:47;16.60;99.90
47162;DHT22;32921;53.256;8.198;2023-07-22T15:38:12;16.60;99.90
47162;DHT22;32921;53.256;8.198;2023-07-22T15:40:38;16.50;99.90